Time;durP1;ratioP1;P1;durP2;ratioP2;P2;SDS_P1;SDS_P2;PMS_P1;PMS_P2;Temp;Humidity;BMP_temperature;BMP_pressure;BME280_temperature;BME280_humidity;BME280_pressure;Samples;Min_cycle;Max_cycle;Signal;HPM_P1;HPM_P2
2020/12/17 00:00:32;;;;;;;5.57;3.27;;;12.40;99.90;;;;;;5015027;28;20207;-91
2020/12/17 00:02:57;;;;;;;8.87;3.47;;;12.40;99.90;;;;;;5017136;28;20612;-92
2020/12/17 00:05:23;;;;;;;6.97;3.30;;;12.50;99.90;;;;;;5025715;28;20208;-89
2020/12/17 00:07:49;;;;;;;8.97;3.70;;;12.60;99.90;;;;;;5032023;28;20178;-88
2020/12/17 00:10:15;;;;;;;9.30;3.60;;;12.60;99.90;;;;;;5003855;28;20228;-89
2020/12/17 00:12:44;;;;;;;8.43;3.77;;;12.60;99.90;;;;;;5048399;28;20231;-89
2020/12/17 00:15:11;;;;;;;7.43;3.67;;;12.70;99.90;;;;;;5009647;28;20189;-89
2020/12/17 00:17:41;;;;;;;8.63;3.80;;;12.60;99.90;;;;;;5050206;28;20180;-89
2020/12/17 00:20:07;;;;;;;6.50;3.30;;;12.70;99.90;;;;;;5037129;28;20313;-90
2020/12/17 00:22:35;;;;;;;8.43;3.80;;;12.80;99.90;;;;;;5047718;28;20188;-89
2020/12/17 00:25:02;;;;;;;6.20;3.30;;;12.80;99.90;;;;;;5047986;28;20243;-91
2020/12/17 00:27:28;;;;;;;9.33;4.23;;;12.60;99.90;;;;;;5047541;28;20219;-90
2020/12/17 00:29:54;;;;;;;7.67;3.83;;;12.60;99.90;;;;;;5017294;28;20199;-89
2020/12/17 00:32:19;;;;;;;9.63;3.80;;;12.50;99.90;;;;;;5011304;28;20193;-88
2020/12/17 00:34:45;;;;;;;7.87;4.53;;;12.50;99.90;;;;;;5041357;28;20199;-89
2020/12/17 00:37:10;;;;;;;7.23;3.60;;;12.40;99.90;;;;;;5010097;28;20184;-88
2020/12/17 00:39:36;;;;;;;8.93;4.37;;;12.50;99.90;;;;;;5030213;28;20706;-89
2020/12/17 00:42:05;;;;;;;10.17;4.27;;;12.40;99.90;;;;;;5024273;28;20547;-89
2020/12/17 00:44:32;;;;;;;9.37;4.60;;;12.30;99.90;;;;;;5015849;28;20180;-88
2020/12/17 00:46:57;;;;;;;9.00;4.37;;;12.10;99.90;;;;;;5064836;28;20186;-89
2020/12/17 00:49:23;;;;;;;8.27;4.27;;;12.00;99.90;;;;;;5009780;28;20190;-89
2020/12/17 00:51:49;;;;;;;10.47;4.60;;;12.00;99.90;;;;;;5038602;28;20207;-88
2020/12/17 00:54:14;;;;;;;9.33;4.80;;;12.00;99.90;;;;;;5020034;28;20654;-88
2020/12/17 00:56:46;;;;;;;11.30;4.80;;;12.10;99.90;;;;;;5031413;28;20195;-88
2020/12/17 00:59:13;;;;;;;8.87;4.43;;;12.10;99.90;;;;;;5016847;28;20218;-89
2020/12/17 01:01:39;;;;;;;8.03;4.37;;;12.20;99.90;;;;;;5027709;28;20187;-87
2020/12/17 01:04:05;;;;;;;11.57;4.43;;;12.00;99.90;;;;;;5040118;28;20187;-89
2020/12/17 01:06:30;;;;;;;9.97;4.40;;;12.10;99.90;;;;;;5043189;28;20251;-88
2020/12/17 01:08:56;;;;;;;8.43;4.47;;;12.00;99.90;;;;;;5009222;28;20256;-88
2020/12/17 01:11:30;;;;;;;10.17;4.50;;;12.00;99.90;;;;;;5006727;28;20229;-86
2020/12/17 01:13:56;;;;;;;10.13;4.87;;;12.00;99.90;;;;;;5014985;28;20194;-88
2020/12/17 01:16:22;;;;;;;10.77;4.60;;;12.00;99.90;;;;;;5006600;28;20184;-89
2020/12/17 01:18:48;;;;;;;9.63;4.57;;;11.80;99.90;;;;;;5012335;28;20182;-88
2020/12/17 01:21:14;;;;;;;8.50;4.40;;;11.90;99.90;;;;;;5038849;28;20186;-88
2020/12/17 01:23:40;;;;;;;8.90;4.70;;;11.90;99.90;;;;;;5016028;28;20194;-86
2020/12/17 01:26:09;;;;;;;12.37;5.07;;;11.80;99.90;;;;;;5005379;28;20190;-88
2020/12/17 01:28:40;;;;;;;9.17;4.70;;;11.90;99.90;;;;;;5053596;28;20270;-87
2020/12/17 01:31:12;;;;;;;10.27;5.07;;;12.00;99.90;;;;;;5053073;28;20193;-88
2020/12/17 01:33:39;;;;;;;12.13;4.90;;;11.90;99.90;;;;;;5076069;28;20194;-88
2020/12/17 01:36:06;;;;;;;10.87;5.13;;;11.90;99.90;;;;;;5039239;28;20202;-88
2020/12/17 01:38:32;;;;;;;11.50;4.80;;;12.10;99.90;;;;;;5087620;28;20676;-88
2020/12/17 01:40:58;;;;;;;10.30;4.90;;;12.00;99.90;;;;;;5071195;28;20208;-86
2020/12/17 01:43:24;;;;;;;9.73;4.47;;;12.00;99.90;;;;;;5054148;28;20616;-88
2020/12/17 01:45:51;;;;;;;8.33;4.67;;;12.00;99.90;;;;;;5055836;28;20182;-87
2020/12/17 01:48:18;;;;;;;11.40;5.10;;;12.00;99.90;;;;;;5039188;28;20196;-88
2020/12/17 01:50:44;;;;;;;10.90;4.73;;;12.00;99.90;;;;;;5056778;28;20180;-88
2020/12/17 01:53:11;;;;;;;9.37;5.23;;;12.10;99.90;;;;;;5054018;28;20219;-87
2020/12/17 01:55:38;;;;;;;14.77;5.80;;;12.10;99.90;;;;;;5053345;28;20193;-87
2020/12/17 01:58:05;;;;;;;15.13;5.93;;;12.10;99.90;;;;;;5039765;28;20641;-87
2020/12/17 02:00:35;;;;;;;9.43;4.97;;;12.10;99.90;;;;;;5036732;28;20683;-88
2020/12/17 02:03:03;;;;;;;14.30;5.20;;;12.10;99.90;;;;;;5055241;28;20208;-88
2020/12/17 02:05:30;;;;;;;12.20;5.13;;;12.00;99.90;;;;;;5050047;28;20579;-87
2020/12/17 02:08:00;;;;;;;12.27;5.33;;;12.00;99.90;;;;;;5053354;28;20208;-88
2020/12/17 02:10:27;;;;;;;12.73;5.37;;;12.00;99.90;;;;;;5054272;28;20642;-86
2020/12/17 02:12:53;;;;;;;12.00;5.27;;;12.10;99.90;;;;;;5052925;28;20667;-89
2020/12/17 02:15:20;;;;;;;14.57;5.73;;;12.00;99.90;;;;;;5071530;28;20230;-87
2020/12/17 02:17:46;;;;;;;11.87;5.70;;;12.00;99.90;;;;;;5040732;28;20213;-86
2020/12/17 02:20:12;;;;;;;12.17;6.17;;;11.90;99.90;;;;;;5052787;28;20676;-88
2020/12/17 02:22:39;;;;;;;12.93;5.57;;;12.00;99.90;;;;;;5053788;28;20188;-87
2020/12/17 02:25:07;;;;;;;10.33;5.23;;;12.00;99.90;;;;;;5036759;28;20186;-88
2020/12/17 02:27:33;;;;;;;11.23;6.10;;;11.90;99.90;;;;;;5050765;28;20560;-88
2020/12/17 02:29:59;;;;;;;11.13;5.73;;;11.90;99.90;;;;;;5084702;28;20189;-87
2020/12/17 02:32:25;;;;;;;11.07;5.97;;;11.90;99.90;;;;;;5039262;28;20737;-87
2020/12/17 02:34:50;;;;;;;12.40;6.37;;;12.00;99.90;;;;;;5038380;28;20186;-87
2020/12/17 02:37:16;;;;;;;13.37;6.40;;;11.90;99.90;;;;;;5051741;28;20189;-86
2020/12/17 02:39:42;;;;;;;11.57;6.17;;;11.90;99.90;;;;;;5038510;28;20301;-88
2020/12/17 02:42:08;;;;;;;14.07;6.40;;;11.90;99.90;;;;;;5035776;28;20549;-87
2020/12/17 02:44:33;;;;;;;13.37;6.20;;;11.80;99.90;;;;;;5087798;28;20181;-87
2020/12/17 02:46:59;;;;;;;12.30;6.97;;;11.70;99.90;;;;;;5036066;28;20184;-87
2020/12/17 02:49:25;;;;;;;15.13;6.50;;;11.70;99.90;;;;;;5035931;28;20739;-86
2020/12/17 02:51:50;;;;;;;12.97;7.20;;;11.70;99.90;;;;;;5040320;28;20733;-87
2020/12/17 02:54:16;;;;;;;12.33;7.00;;;11.60;99.90;;;;;;5053019;28;20682;-87
2020/12/17 02:56:42;;;;;;;13.90;7.27;;;11.60;99.90;;;;;;5070618;28;20185;-88
2020/12/17 02:59:07;;;;;;;14.40;7.50;;;11.70;99.90;;;;;;5036743;28;20243;-88
2020/12/17 03:01:33;;;;;;;14.80;7.23;;;11.70;99.90;;;;;;5038249;28;20176;-87
2020/12/17 03:03:58;;;;;;;15.37;7.90;;;11.70;99.90;;;;;;5071814;28;20266;-87
2020/12/17 03:06:24;;;;;;;13.33;7.57;;;11.70;99.90;;;;;;5084458;28;20718;-85
2020/12/17 03:08:50;;;;;;;17.70;8.73;;;11.60;99.90;;;;;;5039458;28;20237;-86
2020/12/17 03:11:15;;;;;;;16.87;8.73;;;11.70;99.90;;;;;;5048749;28;20237;-86
2020/12/17 03:13:41;;;;;;;17.57;8.43;;;11.70;99.90;;;;;;5053923;28;20548;-87
2020/12/17 03:16:07;;;;;;;15.80;9.07;;;11.70;99.90;;;;;;5048605;28;20241;-87
2020/12/17 03:18:32;;;;;;;16.23;8.40;;;11.80;99.90;;;;;;5036170;28;20196;-86
2020/12/17 03:20:58;;;;;;;15.23;8.23;;;11.90;99.90;;;;;;5039297;28;20250;-86
2020/12/17 03:23:24;;;;;;;17.83;9.00;;;11.90;99.90;;;;;;5074064;28;20185;-87
2020/12/17 03:25:50;;;;;;;16.00;8.30;;;11.90;99.90;;;;;;5055657;28;20189;-88
2020/12/17 03:28:15;;;;;;;14.93;7.73;;;11.90;99.90;;;;;;5057604;28;20183;-86
2020/12/17 03:30:41;;;;;;;15.20;8.00;;;12.00;99.90;;;;;;5057275;28;20327;-87
2020/12/17 03:33:07;;;;;;;14.00;7.50;;;11.90;99.90;;;;;;5040940;28;20185;-87
2020/12/17 03:35:32;;;;;;;14.10;7.20;;;11.90;99.90;;;;;;5082209;28;20186;-86
2020/12/17 03:37:58;;;;;;;14.03;7.03;;;11.80;99.90;;;;;;5039950;28;20332;-87
2020/12/17 03:40:27;;;;;;;13.27;6.97;;;11.90;99.90;;;;;;5041013;28;20254;-86
2020/12/17 03:42:54;;;;;;;12.93;6.73;;;12.00;99.90;;;;;;5037753;28;20195;-85
2020/12/17 03:45:20;;;;;;;11.17;5.80;;;11.90;99.90;;;;;;5057602;28;20211;-86
2020/12/17 03:47:46;;;;;;;10.83;6.43;;;11.90;99.90;;;;;;5039562;28;20546;-87
2020/12/17 03:50:12;;;;;;;11.40;6.10;;;11.90;99.90;;;;;;5037432;28;20236;-86
2020/12/17 03:52:37;;;;;;;11.40;6.33;;;11.90;99.90;;;;;;5039236;28;20210;-86
2020/12/17 03:55:05;;;;;;;10.33;5.93;;;11.90;99.90;;;;;;5054676;28;20178;-86
2020/12/17 03:57:30;;;;;;;12.10;6.33;;;11.90;99.90;;;;;;5073926;28;20192;-87
2020/12/17 03:59:56;;;;;;;11.80;6.40;;;11.90;99.90;;;;;;5034663;28;20206;-86
2020/12/17 04:02:22;;;;;;;11.67;6.03;;;11.80;99.90;;;;;;5042149;28;20704;-87
2020/12/17 04:04:48;;;;;;;11.73;6.00;;;11.70;99.90;;;;;;5032933;28;20221;-87
2020/12/17 04:07:15;;;;;;;13.10;6.03;;;11.80;99.90;;;;;;5072926;28;20628;-87
2020/12/17 04:09:41;;;;;;;11.77;5.87;;;11.80;99.90;;;;;;5040609;28;20198;-87
2020/12/17 04:12:07;;;;;;;9.90;5.20;;;11.80;99.90;;;;;;5041379;28;20197;-87
2020/12/17 04:14:33;;;;;;;10.40;5.10;;;11.80;99.90;;;;;;5057220;28;20265;-87
2020/12/17 04:16:59;;;;;;;10.03;4.87;;;11.70;99.90;;;;;;5050249;28;20689;-89
2020/12/17 04:19:25;;;;;;;9.70;5.10;;;11.70;99.90;;;;;;5046557;28;20210;-87
2020/12/17 04:21:50;;;;;;;9.27;4.57;;;11.70;99.90;;;;;;5042568;28;20355;-87
2020/12/17 04:24:16;;;;;;;7.80;4.13;;;11.60;99.90;;;;;;5057172;28;20653;-87
2020/12/17 04:26:42;;;;;;;8.43;4.63;;;11.60;99.90;;;;;;5041464;28;20637;-88
2020/12/17 04:29:07;;;;;;;10.60;4.57;;;11.50;99.90;;;;;;5035475;28;20178;-87
2020/12/17 04:31:33;;;;;;;7.93;4.20;;;11.60;99.90;;;;;;5073236;28;20783;-87
2020/12/17 04:33:59;;;;;;;10.07;4.30;;;11.60;99.90;;;;;;5039839;28;20243;-87
2020/12/17 04:36:25;;;;;;;7.83;3.93;;;11.60;99.90;;;;;;5053604;28;20654;-87
2020/12/17 04:38:51;;;;;;;7.23;3.80;;;11.60;99.90;;;;;;5039628;28;20199;-87
2020/12/17 04:41:19;;;;;;;7.63;3.73;;;11.60;99.90;;;;;;5054259;28;20213;-87
2020/12/17 04:43:46;;;;;;;8.93;4.33;;;11.50;99.90;;;;;;5039870;28;20613;-86
2020/12/17 04:46:16;;;;;;;6.77;3.30;;;11.60;99.90;;;;;;5038977;28;20200;-87
2020/12/17 04:48:46;;;;;;;7.10;3.70;;;11.60;99.90;;;;;;5054472;28;20200;-88
2020/12/17 04:51:12;;;;;;;10.37;3.70;;;11.60;99.90;;;;;;5037713;28;20197;-88
2020/12/17 04:53:42;;;;;;;12.67;3.77;;;11.50;99.90;;;;;;5039346;28;20185;-88
2020/12/17 04:56:09;;;;;;;8.43;3.60;;;11.50;99.90;;;;;;5039776;28;20199;-87
2020/12/17 04:58:34;;;;;;;7.50;3.53;;;11.50;99.90;;;;;;5055040;28;20197;-87
2020/12/17 05:01:01;;;;;;;9.33;3.80;;;11.60;99.90;;;;;;5053492;28;20218;-87
2020/12/17 05:03:29;;;;;;;7.20;3.63;;;11.70;99.90;;;;;;5037444;28;20224;-87
2020/12/17 05:06:00;;;;;;;7.77;3.63;;;11.70;99.90;;;;;;5055089;28;20310;-87
2020/12/17 05:08:26;;;;;;;5.77;2.90;;;11.50;99.90;;;;;;5031426;28;20192;-86
2020/12/17 05:10:51;;;;;;;8.53;3.77;;;11.40;99.90;;;;;;5071684;28;20198;-86
2020/12/17 05:13:18;;;;;;;7.10;2.93;;;11.40;99.90;;;;;;5039793;28;20189;-86
2020/12/17 05:15:44;;;;;;;7.63;2.60;;;11.30;99.90;;;;;;5054853;28;20182;-86
2020/12/17 05:18:10;;;;;;;7.00;2.97;;;11.30;99.90;;;;;;5070132;28;20182;-87
2020/12/17 05:20:38;;;;;;;6.33;2.80;;;11.30;99.90;;;;;;5053471;28;20228;-87
2020/12/17 05:23:05;;;;;;;5.73;2.67;;;11.30;99.90;;;;;;5054645;28;20232;-87
2020/12/17 05:25:31;;;;;;;6.13;2.70;;;11.20;99.90;;;;;;5062624;28;20175;-87
2020/12/17 05:28:01;;;;;;;7.53;2.70;;;11.20;99.90;;;;;;5053303;28;20225;-87
2020/12/17 05:30:31;;;;;;;7.93;2.97;;;11.20;99.90;;;;;;5088341;28;20235;-88
2020/12/17 05:32:58;;;;;;;7.73;3.10;;;11.20;99.90;;;;;;5036969;28;20180;-87
2020/12/17 05:35:24;;;;;;;10.13;3.20;;;11.30;99.90;;;;;;5072315;28;20651;-87
2020/12/17 05:37:50;;;;;;;8.93;3.80;;;11.30;99.90;;;;;;5053739;28;20262;-87
2020/12/17 05:40:16;;;;;;;10.07;4.50;;;11.20;99.90;;;;;;5053862;28;20215;-87
2020/12/17 05:42:42;;;;;;;11.23;4.53;;;11.10;99.90;;;;;;5034216;28;20286;-86
2020/12/17 05:45:27;;;;;;;13.30;5.03;;;11.10;99.90;;;;;;5051197;28;20200;-87
2020/12/17 05:48:18;;;;;;;16.10;6.07;;;11.10;99.90;;;;;;5054465;28;20205;-86
2020/12/17 05:50:53;;;;;;;15.20;6.50;;;11.10;99.90;;;;;;5063557;28;20541;-86
2020/12/17 05:53:20;;;;;;;16.97;6.43;;;11.00;99.90;;;;;;5035645;28;20195;-86
2020/12/17 05:55:48;;;;;;;15.57;6.57;;;11.00;99.90;;;;;;5052673;28;20180;-86
2020/12/17 05:58:13;;;;;;;18.33;6.70;;;11.00;99.90;;;;;;5052413;28;20271;-86
2020/12/17 06:00:39;;;;;;;16.20;6.43;;;10.90;99.90;;;;;;5054252;28;20745;-85
2020/12/17 06:03:28;;;;;;;17.87;7.00;;;11.00;99.90;;;;;;5037811;28;20180;-86
2020/12/17 06:06:00;;;;;;;17.03;6.10;;;10.90;99.90;;;;;;5085255;28;20184;-86
2020/12/17 06:08:34;;;;;;;16.93;6.97;;;11.00;99.90;;;;;;5053746;28;20264;-86
2020/12/17 06:11:03;;;;;;;17.23;5.97;;;11.10;99.90;;;;;;5070462;28;20179;-85
2020/12/17 06:13:32;;;;;;;12.37;4.73;;;11.10;99.90;;;;;;5053096;28;20651;-87
2020/12/17 06:16:03;;;;;;;12.63;4.63;;;11.10;99.90;;;;;;5053775;28;20192;-86
2020/12/17 06:18:35;;;;;;;12.93;4.70;;;11.00;99.90;;;;;;5070029;28;20191;-87
2020/12/17 06:21:02;;;;;;;10.87;4.63;;;11.00;99.90;;;;;;5038382;28;20297;-87
2020/12/17 06:23:31;;;;;;;10.37;4.00;;;11.00;99.90;;;;;;5070840;28;20176;-86
2020/12/17 06:25:58;;;;;;;11.00;4.27;;;11.20;99.90;;;;;;5037281;28;20195;-87
2020/12/17 06:28:46;;;;;;;12.47;4.80;;;11.10;99.90;;;;;;5038950;28;20186;-86
2020/12/17 06:31:31;;;;;;;10.77;4.70;;;10.90;99.90;;;;;;5037698;28;20220;-86
2020/12/17 06:34:04;;;;;;;13.70;5.50;;;11.00;99.90;;;;;;5079541;28;20222;-87
2020/12/17 06:36:36;;;;;;;12.37;5.00;;;10.90;99.90;;;;;;5050729;28;20196;-87
2020/12/17 06:39:05;;;;;;;15.77;5.40;;;10.90;99.90;;;;;;5068102;28;20189;-87
2020/12/17 06:41:31;;;;;;;16.37;6.37;;;10.90;99.90;;;;;;5050545;28;20673;-87
2020/12/17 06:43:57;;;;;;;19.57;7.17;;;10.90;99.90;;;;;;5038134;28;20205;-88
2020/12/17 06:46:38;;;;;;;18.77;6.87;;;10.90;99.90;;;;;;5034058;28;20221;-89
2020/12/17 06:49:08;;;;;;;20.43;7.17;;;10.90;99.90;;;;;;5034751;28;20212;-88
2020/12/17 06:51:39;;;;;;;17.93;6.53;;;10.90;99.90;;;;;;5068652;28;20215;-87
2020/12/17 06:54:15;;;;;;;19.57;6.73;;;11.00;99.90;;;;;;5055223;28;20226;-86
2020/12/17 06:57:05;;;;;;;16.97;7.10;;;11.00;99.90;;;;;;5055730;28;20192;-88
2020/12/17 06:59:31;;;;;;;17.53;7.20;;;11.00;99.90;;;;;;5071990;28;20234;-89
2020/12/17 07:01:57;;;;;;;22.50;7.30;;;11.10;99.90;;;;;;5042040;28;20180;-88
2020/12/17 07:04:39;;;;;;;18.67;7.10;;;11.20;99.90;;;;;;5058363;28;20184;-88
2020/12/17 07:07:22;;;;;;;20.87;7.27;;;11.00;99.90;;;;;;5072139;28;20307;-88
2020/12/17 07:09:53;;;;;;;20.77;7.47;;;11.10;99.90;;;;;;5056860;28;20184;-88
2020/12/17 07:12:34;;;;;;;19.77;7.30;;;11.10;99.90;;;;;;5073330;28;20203;-88
2020/12/17 07:15:05;;;;;;;19.03;6.90;;;11.00;99.90;;;;;;5055783;28;20216;-90
2020/12/17 07:17:31;;;;;;;19.63;7.40;;;10.90;99.90;;;;;;5040209;28;20192;-89
2020/12/17 07:19:57;;;;;;;23.53;7.63;;;10.90;99.90;;;;;;5057285;28;20256;-89
2020/12/17 07:22:23;;;;;;;26.37;8.87;;;10.80;99.90;;;;;;5070580;28;20241;-88
2020/12/17 07:24:51;;;;;;;24.37;8.57;;;10.80;99.90;;;;;;5056968;28;20173;-88
2020/12/17 07:27:25;;;;;;;23.67;8.83;;;10.70;99.90;;;;;;5075846;28;20212;-88
2020/12/17 07:29:51;;;;;;;23.93;8.37;;;10.70;99.90;;;;;;5040373;28;20188;-88
2020/12/17 07:32:26;;;;;;;20.60;8.70;;;10.70;99.90;;;;;;5062859;28;20217;-88
2020/12/17 07:34:54;;;;;;;21.60;8.73;;;10.70;99.90;;;;;;5062310;28;20184;-89
2020/12/17 07:37:38;;;;;;;24.60;9.10;;;10.70;99.90;;;;;;5039935;28;20240;-89
2020/12/17 07:40:24;;;;;;;22.33;8.97;;;10.70;99.90;;;;;;5042515;28;20233;-89
2020/12/17 07:43:00;;;;;;;21.70;9.17;;;10.70;99.90;;;;;;5091369;28;20215;-89
2020/12/17 07:45:40;;;;;;;25.40;9.20;;;10.70;99.90;;;;;;5041416;28;20188;-89
2020/12/17 07:48:30;;;;;;;22.87;9.10;;;10.60;99.90;;;;;;5044373;28;20188;-90
2020/12/17 07:50:56;;;;;;;23.27;9.37;;;10.60;99.90;;;;;;5089255;28;20606;-88
2020/12/17 07:53:23;;;;;;;21.73;9.07;;;10.60;99.90;;;;;;5039665;28;20258;-89
2020/12/17 07:55:51;;;;;;;25.67;9.33;;;10.60;99.90;;;;;;5073220;28;20250;-89
2020/12/17 07:58:16;;;;;;;24.53;8.77;;;10.60;99.90;;;;;;5040526;28;20290;-90
2020/12/17 08:00:43;;;;;;;18.80;7.83;;;10.60;99.90;;;;;;5040505;28;20287;-88
2020/12/17 08:03:12;;;;;;;18.73;7.87;;;10.70;99.90;;;;;;5070695;28;20173;-88
2020/12/17 08:05:38;;;;;;;20.30;7.73;;;10.70;99.90;;;;;;5038963;28;20677;-87
2020/12/17 08:08:04;;;;;;;20.50;7.40;;;10.70;99.90;;;;;;5074183;28;20662;-88
2020/12/17 08:10:36;;;;;;;16.53;7.40;;;10.70;99.90;;;;;;5060470;28;20191;-87
2020/12/17 08:13:02;;;;;;;17.57;7.27;;;10.70;99.90;;;;;;5042241;28;20185;-87
2020/12/17 08:15:28;;;;;;;17.47;7.10;;;10.70;99.90;;;;;;5043159;28;20272;-86
2020/12/17 08:17:59;;;;;;;20.23;7.97;;;10.70;99.90;;;;;;5039752;28;20202;-88
2020/12/17 08:20:25;;;;;;;17.27;7.20;;;10.70;99.90;;;;;;5035402;28;20342;-88
2020/12/17 08:22:52;;;;;;;16.63;7.10;;;10.80;99.90;;;;;;5043560;28;20242;-88
2020/12/17 08:25:19;;;;;;;14.43;7.17;;;10.80;99.90;;;;;;5043866;28;20183;-88
2020/12/17 08:27:45;;;;;;;16.70;6.17;;;10.80;99.90;;;;;;5049947;28;20224;-89
2020/12/17 08:30:12;;;;;;;13.50;6.10;;;10.80;99.90;;;;;;5064899;28;20210;-87
2020/12/17 08:32:47;;;;;;;13.87;6.20;;;10.80;99.90;;;;;;5062648;28;20209;-87
2020/12/17 08:35:17;;;;;;;15.73;6.00;;;10.80;99.90;;;;;;5043310;28;20268;-88
2020/12/17 08:37:43;;;;;;;11.80;5.53;;;10.80;99.90;;;;;;5058136;28;20277;-88
2020/12/17 08:40:11;;;;;;;12.37;4.67;;;10.90;99.90;;;;;;5044088;28;20284;-87
2020/12/17 08:42:37;;;;;;;14.83;5.10;;;11.00;99.90;;;;;;5041689;28;20177;-88
2020/12/17 08:45:13;;;;;;;12.13;4.97;;;10.90;99.90;;;;;;5073885;28;20220;-88
2020/12/17 08:47:42;;;;;;;14.17;4.67;;;10.90;99.90;;;;;;5051983;28;20177;-88
2020/12/17 08:50:09;;;;;;;15.13;4.90;;;10.90;99.90;;;;;;5069036;28;20228;-88
2020/12/17 08:52:35;;;;;;;12.37;4.60;;;11.00;99.90;;;;;;5041357;28;20191;-88
2020/12/17 08:55:10;;;;;;;13.73;4.37;;;11.00;99.90;;;;;;5040694;28;20189;-87
2020/12/17 08:57:37;;;;;;;12.83;4.43;;;10.90;99.90;;;;;;5042741;28;20188;-88
2020/12/17 09:00:15;;;;;;;15.23;4.03;;;11.00;99.90;;;;;;5040113;28;20222;-88
2020/12/17 09:02:42;;;;;;;11.20;4.13;;;11.00;99.90;;;;;;5040682;28;20241;-89
2020/12/17 09:05:12;;;;;;;12.67;3.90;;;11.20;99.90;;;;;;5041465;28;20255;-88
2020/12/17 09:07:40;;;;;;;14.57;3.97;;;11.10;99.90;;;;;;5055929;28;20214;-88
2020/12/17 09:10:14;;;;;;;13.27;3.70;;;11.20;99.90;;;;;;5040728;28;20191;-88
2020/12/17 09:12:41;;;;;;;10.63;3.60;;;11.30;99.90;;;;;;5067072;28;20186;-88
2020/12/17 09:15:09;;;;;;;12.33;3.80;;;11.30;99.90;;;;;;5038698;28;20226;-88
2020/12/17 09:17:35;;;;;;;9.90;3.13;;;11.40;99.90;;;;;;5069850;28;20193;-87
2020/12/17 09:20:13;;;;;;;12.63;3.40;;;11.40;99.90;;;;;;5072222;28;20702;-88
2020/12/17 09:22:39;;;;;;;10.83;3.30;;;11.30;99.90;;;;;;5039198;28;20184;-88
2020/12/17 09:25:04;;;;;;;14.50;3.77;;;11.20;99.90;;;;;;5068782;28;20291;-90
2020/12/17 09:27:36;;;;;;;15.67;3.77;;;11.30;99.90;;;;;;5074359;28;20648;-89
2020/12/17 09:30:15;;;;;;;10.83;3.50;;;11.30;99.90;;;;;;5072094;28;20205;-89
2020/12/17 09:33:00;;;;;;;12.40;3.80;;;11.20;99.90;;;;;;5059454;28;20195;-89
2020/12/17 09:35:30;;;;;;;12.37;3.80;;;11.30;99.90;;;;;;5054946;28;20550;-88
2020/12/17 09:38:05;;;;;;;14.80;3.53;;;11.40;99.90;;;;;;5038999;28;20195;-89
2020/12/17 09:40:33;;;;;;;11.00;3.77;;;11.50;99.90;;;;;;5072640;28;20232;-89
2020/12/17 09:43:08;;;;;;;12.17;3.70;;;11.50;99.90;;;;;;5038420;28;20206;-89
2020/12/17 09:45:43;;;;;;;14.90;4.17;;;11.60;99.90;;;;;;5043064;28;20199;-87
2020/12/17 09:48:26;;;;;;;11.93;3.33;;;11.70;99.90;;;;;;5041466;28;20183;-88
2020/12/17 09:51:02;;;;;;;12.67;4.00;;;11.70;99.90;;;;;;5059002;28;20185;-89
2020/12/17 09:53:35;;;;;;;10.13;3.57;;;11.60;99.90;;;;;;5036023;28;20640;-88
2020/12/17 09:56:01;;;;;;;17.13;4.77;;;11.60;99.90;;;;;;5056909;28;20297;-88
2020/12/17 09:58:27;;;;;;;12.67;3.93;;;11.60;99.90;;;;;;5061396;28;20552;-87
2020/12/17 10:00:52;;;;;;;13.80;4.00;;;11.70;99.90;;;;;;5067530;28;20233;-88
2020/12/17 10:03:18;;;;;;;13.13;3.43;;;11.70;99.90;;;;;;5055832;28;20230;-86
2020/12/17 10:05:44;;;;;;;13.63;3.67;;;11.80;99.90;;;;;;5037240;28;20190;-87
2020/12/17 10:08:10;;;;;;;12.30;3.70;;;11.80;99.90;;;;;;5037952;28;20192;-88
2020/12/17 10:10:37;;;;;;;12.70;3.30;;;11.80;99.90;;;;;;5040890;28;20185;-87
2020/12/17 10:13:03;;;;;;;13.37;3.47;;;11.90;99.90;;;;;;5055302;28;20648;-88
2020/12/17 10:15:30;;;;;;;13.33;3.70;;;11.90;99.90;;;;;;5055442;28;20186;-87
2020/12/17 10:17:56;;;;;;;10.77;3.10;;;12.10;99.90;;;;;;5056416;28;20240;-87
2020/12/17 10:20:23;;;;;;;10.13;2.70;;;12.60;99.90;;;;;;5038702;28;20221;-88
2020/12/17 10:22:49;;;;;;;9.23;3.00;;;13.70;99.90;;;;;;5054091;28;20169;-88
2020/12/17 10:25:17;;;;;;;8.97;2.40;;;14.50;99.90;;;;;;5036274;28;20224;-88
2020/12/17 10:27:45;;;;;;;9.33;2.07;;;15.30;99.90;;;;;;5054903;28;20249;-90
2020/12/17 10:30:11;;;;;;;8.70;1.97;;;15.70;99.90;;;;;;5045213;28;20216;-90
2020/12/17 10:32:43;;;;;;;8.83;2.40;;;16.00;99.90;;;;;;5043492;28;20194;-86
2020/12/17 10:35:10;;;;;;;7.50;2.07;;;15.60;99.90;;;;;;5091497;28;20532;-88
2020/12/17 10:37:39;;;;;;;6.60;1.80;;;15.40;99.90;;;;;;5045170;28;20190;-89
2020/12/17 10:40:11;;;;;;;10.97;2.23;;;15.50;99.90;;;;;;5091138;28;20263;-90
2020/12/17 10:42:38;;;;;;;10.77;2.60;;;15.50;99.90;;;;;;5058871;28;20184;-87
2020/12/17 10:45:05;;;;;;;10.30;2.00;;;15.60;99.90;;;;;;5059454;28;20185;-88
2020/12/17 10:47:31;;;;;;;9.70;1.70;;;15.60;99.90;;;;;;5043576;28;20190;-89
2020/12/17 10:49:57;;;;;;;9.70;1.90;;;15.50;99.90;;;;;;5039789;28;20183;-88
2020/12/17 10:52:23;;;;;;;9.90;1.90;;;15.40;99.90;;;;;;5038287;28;20184;-88
2020/12/17 10:54:48;;;;;;;8.07;2.00;;;14.80;99.90;;;;;;5046403;28;20185;-88
2020/12/17 10:57:17;;;;;;;13.03;2.00;;;14.40;99.90;;;;;;5074490;28;20211;-89
2020/12/17 10:59:43;;;;;;;12.50;2.10;;;14.40;99.90;;;;;;5042075;28;20389;-90
2020/12/17 11:02:09;;;;;;;14.17;1.87;;;14.30;99.90;;;;;;5043769;28;20246;-90
2020/12/17 11:04:34;;;;;;;14.63;2.00;;;14.40;99.90;;;;;;5076452;28;20644;-89
2020/12/17 11:07:00;;;;;;;10.20;1.77;;;14.40;99.90;;;;;;5041846;28;20179;-90
2020/12/17 11:09:26;;;;;;;11.20;2.07;;;14.40;99.90;;;;;;5073959;28;20181;-89
2020/12/17 11:11:53;;;;;;;11.33;1.90;;;14.00;99.90;;;;;;5057107;28;20187;-90
2020/12/17 11:14:19;;;;;;;10.80;1.80;;;13.60;99.90;;;;;;5069244;28;20176;-90
2020/12/17 11:16:53;;;;;;;13.20;2.23;;;13.30;99.90;;;;;;5075240;28;20580;-88
2020/12/17 11:19:19;;;;;;;11.50;1.87;;;13.00;99.90;;;;;;5056169;28;20189;-89
2020/12/17 11:21:45;;;;;;;9.57;1.80;;;12.80;99.90;;;;;;5056589;28;20198;-89
2020/12/17 11:24:11;;;;;;;12.93;2.07;;;12.70;99.90;;;;;;5042104;28;20656;-88
2020/12/17 11:26:45;;;;;;;10.87;2.40;;;12.70;99.90;;;;;;5039883;28;20220;-89
2020/12/17 11:29:12;;;;;;;12.10;2.63;;;12.50;99.90;;;;;;5058647;28;20180;-87
2020/12/17 11:31:38;;;;;;;7.33;2.13;;;12.50;99.90;;;;;;5039555;28;20206;-90
2020/12/17 11:34:06;;;;;;;15.13;2.10;;;12.30;99.90;;;;;;5056155;28;20184;-89
2020/12/17 11:36:32;;;;;;;13.50;2.10;;;12.20;99.90;;;;;;5076786;28;20177;-90
2020/12/17 11:38:57;;;;;;;7.50;1.83;;;12.20;99.90;;;;;;5039118;28;20234;-89
2020/12/17 11:41:23;;;;;;;12.53;2.03;;;12.20;99.90;;;;;;5059701;28;20227;-89
2020/12/17 11:43:49;;;;;;;10.30;1.97;;;12.30;99.90;;;;;;5070358;28;20197;-88
2020/12/17 11:46:18;;;;;;;9.80;2.00;;;12.30;99.90;;;;;;5057011;28;20661;-89
2020/12/17 11:48:44;;;;;;;9.47;1.90;;;12.30;99.90;;;;;;5040578;28;20190;-88
2020/12/17 11:51:12;;;;;;;8.97;1.80;;;12.20;99.90;;;;;;5053764;28;20182;-89
2020/12/17 11:53:37;;;;;;;8.97;1.67;;;12.30;99.90;;;;;;5060145;28;20189;-89
2020/12/17 11:56:03;;;;;;;8.90;1.90;;;12.40;99.90;;;;;;5037335;28;20186;-89
2020/12/17 11:58:29;;;;;;;10.03;1.90;;;12.70;99.90;;;;;;5057962;28;20248;-90
2020/12/17 12:00:55;;;;;;;10.47;1.73;;;12.90;99.90;;;;;;5040607;28;20206;-89
2020/12/17 12:03:22;;;;;;;10.13;1.97;;;13.20;99.90;;;;;;5041922;28;20187;-89
2020/12/17 12:05:48;;;;;;;5.77;1.60;;;13.60;99.90;;;;;;5043430;28;20200;-89
2020/12/17 12:08:14;;;;;;;8.93;1.73;;;13.80;99.90;;;;;;5058994;28;20184;-90
2020/12/17 12:10:42;;;;;;;9.03;1.70;;;14.30;99.90;;;;;;5039348;28;20204;-91
2020/12/17 12:13:08;;;;;;;7.83;1.70;;;14.60;99.90;;;;;;5064832;28;20612;-89
2020/12/17 12:15:33;;;;;;;9.57;1.70;;;15.00;99.90;;;;;;5039843;28;20202;-90
2020/12/17 12:17:59;;;;;;;11.37;1.60;;;15.20;99.90;;;;;;5035025;28;20204;-90
2020/12/17 12:20:25;;;;;;;6.20;1.73;;;15.20;99.90;;;;;;5071645;28;20295;-90
2020/12/17 12:22:51;;;;;;;9.83;2.43;;;15.10;99.90;;;;;;5055056;28;20180;-88
2020/12/17 12:25:16;;;;;;;7.90;1.80;;;14.90;99.90;;;;;;5072927;28;20255;-88
2020/12/17 12:27:45;;;;;;;10.87;1.83;;;14.70;99.90;;;;;;5057604;28;20216;-89
2020/12/17 12:30:11;;;;;;;9.63;1.80;;;14.10;99.90;;;;;;5042769;28;20185;-91
2020/12/17 12:32:36;;;;;;;8.27;1.80;;;13.80;99.90;;;;;;5071636;28;20685;-90
2020/12/17 12:35:02;;;;;;;11.37;1.90;;;13.80;99.90;;;;;;5054376;28;20196;-89
2020/12/17 12:37:34;;;;;;;9.37;1.53;;;14.00;99.90;;;;;;5051343;28;20191;-92
2020/12/17 12:40:00;;;;;;;9.87;2.23;;;14.10;99.90;;;;;;5070626;28;20227;-90
2020/12/17 12:42:26;;;;;;;9.67;1.80;;;14.20;99.90;;;;;;5041442;28;20256;-89
2020/12/17 12:44:51;;;;;;;11.50;1.90;;;14.20;99.90;;;;;;5040400;28;20190;-89